createdAt,value
2022-12-29T00:02:32.548Z,99029.31
2022-12-29T00:07:34.222Z,99029.75
2022-12-29T00:12:54.754Z,99015.19
2022-12-29T00:17:56.348Z,99030.56
2022-12-29T00:23:16.566Z,99020.28
2022-12-29T00:28:38.463Z,99020.94
2022-12-29T00:33:58.656Z,99023.03
2022-12-29T00:39:32.158Z,99011.16
2022-12-29T00:44:33.817Z,99005.22
2022-12-29T00:49:35.593Z,99002.94
2022-12-29T00:54:39.291Z,99002.72
2022-12-29T00:59:42.191Z,98994.16
2022-12-29T01:04:43.783Z,98976.94
2022-12-29T01:10:04.135Z,98976.00
2022-12-29T01:15:06.400Z,98974.72
2022-12-29T01:20:09.330Z,98953.13
2022-12-29T01:25:10.946Z,98953.97
2022-12-29T01:30:13.152Z,98965.63
2022-12-29T01:35:15.857Z,98958.44
2022-12-29T01:40:19.985Z,98973.06
2022-12-29T01:45:21.958Z,98974.31
2022-12-29T01:50:28.558Z,98970.53
2022-12-29T01:55:35.287Z,98982.66
2022-12-29T02:00:38.010Z,98967.81
2022-12-29T02:05:44.659Z,98960.97
2022-12-29T02:10:46.504Z,98950.53
2022-12-29T02:16:09.754Z,98961.63
2022-12-29T02:21:46.833Z,98938.16
2022-12-29T02:27:19.655Z,98930.16
2022-12-29T02:32:42.558Z,98937.09
2022-12-29T02:38:00.621Z,98943.38
2022-12-29T02:43:05.128Z,98928.38
2022-12-29T02:48:26.526Z,98923.81
2022-12-29T02:53:49.418Z,98918.00
2022-12-29T02:58:51.031Z,98912.97
2022-12-29T03:04:01.379Z,98915.69
2022-12-29T03:09:23.059Z,98918.03
2022-12-29T03:14:53.114Z,98899.66
2022-12-29T03:20:02.391Z,98906.56
2022-12-29T03:25:24.684Z,98898.19
2022-12-29T03:30:29.423Z,98901.66
2022-12-29T03:35:36.831Z,98884.44
2022-12-29T03:40:42.160Z,98871.91
2022-12-29T03:45:43.873Z,98872.75
2022-12-29T03:50:45.514Z,98864.66
2022-12-29T03:55:47.119Z,98859.09
2022-12-29T04:00:48.753Z,98854.72
2022-12-29T04:05:50.355Z,98851.59
2022-12-29T04:10:52.102Z,98859.59
2022-12-29T04:15:53.778Z,98869.94
2022-12-29T04:21:01.288Z,98869.31
2022-12-29T04:26:03.464Z,98854.47
2022-12-29T04:31:05.742Z,98848.94
2022-12-29T04:36:07.440Z,98859.03
2022-12-29T04:41:09.266Z,98863.91
2022-12-29T04:46:10.958Z,98860.31
2022-12-29T04:51:12.571Z,98849.53
2022-12-29T04:56:14.195Z,98848.94
2022-12-29T05:01:16.055Z,98840.31
2022-12-29T05:06:17.724Z,98847.44
2022-12-29T05:11:20.247Z,98847.44
2022-12-29T05:16:22.028Z,98842.94
2022-12-29T05:21:23.775Z,98839.59
2022-12-29T05:26:25.370Z,98844.84
2022-12-29T05:31:27.690Z,98841.75
2022-12-29T05:36:34.439Z,98832.00
2022-12-29T05:41:39.043Z,98836.53
2022-12-29T05:46:40.791Z,98822.03
2022-12-29T05:51:42.600Z,98837.47
2022-12-29T05:56:44.228Z,98835.94
2022-12-29T06:01:46.224Z,98846.78
2022-12-29T06:06:48.278Z,98845.72
2022-12-29T06:11:49.926Z,98841.94
2022-12-29T06:16:51.711Z,98836.78
2022-12-29T06:21:54.114Z,98849.97
2022-12-29T06:26:55.712Z,98846.06
2022-12-29T06:31:59.048Z,98850.47
2022-12-29T06:37:00.849Z,98827.06
2022-12-29T06:42:02.670Z,98827.28
2022-12-29T06:47:04.294Z,98839.50
2022-12-29T06:52:12.283Z,98814.66
2022-12-29T06:57:14.221Z,98824.53
2022-12-29T07:02:17.755Z,98831.63
2022-12-29T07:07:23.031Z,98825.56
2022-12-29T07:12:24.751Z,98832.94
2022-12-29T07:17:26.389Z,98825.69
2022-12-29T07:22:28.002Z,98830.06
2022-12-29T07:27:29.755Z,98818.91
2022-12-29T07:32:34.838Z,98834.13
2022-12-29T07:37:36.490Z,98844.94
2022-12-29T07:42:38.118Z,98846.13
2022-12-29T07:47:39.855Z,98862.28
2022-12-29T07:52:41.442Z,98876.03
2022-12-29T07:57:43.607Z,98889.25
2022-12-29T08:02:45.232Z,98932.28
2022-12-29T08:07:47.988Z,98928.13
2022-12-29T08:12:49.676Z,98921.13
2022-12-29T08:17:51.267Z,98929.66
2022-12-29T08:22:52.921Z,98941.25
2022-12-29T08:27:54.513Z,98924.31
2022-12-29T08:32:56.150Z,98923.25
2022-12-29T08:37:57.779Z,98928.00
2022-12-29T08:42:59.367Z,98928.13
2022-12-29T08:48:00.984Z,98941.59
2022-12-29T08:53:02.590Z,98936.28
2022-12-29T08:58:04.188Z,98956.91
2022-12-29T09:03:05.906Z,98973.88
2022-12-29T09:08:07.636Z,98987.16
2022-12-29T09:13:09.232Z,98985.59
2022-12-29T09:18:16.271Z,98977.47
2022-12-29T09:23:20.659Z,98989.22
2022-12-29T09:28:23.382Z,99010.41
2022-12-29T09:33:25.938Z,99002.59
2022-12-29T09:38:28.071Z,98993.94
2022-12-29T09:43:50.848Z,99005.63
2022-12-29T09:49:16.446Z,99019.47
2022-12-29T09:54:36.353Z,99015.44
2022-12-29T09:59:43.609Z,99018.59
2022-12-29T10:04:45.365Z,98999.53
2022-12-29T10:10:02.468Z,99012.66
2022-12-29T10:15:18.975Z,99020.63
2022-12-29T10:20:25.859Z,99018.22
2022-12-29T10:25:33.229Z,99018.50
2022-12-29T10:30:36.425Z,99020.25
2022-12-29T10:35:41.652Z,99029.75
2022-12-29T10:40:58.091Z,99003.16
2022-12-29T10:46:04.105Z,99017.19
2022-12-29T10:51:09.468Z,99004.16
2022-12-29T10:56:22.927Z,99005.44
2022-12-29T11:01:33.321Z,99009.56
2022-12-29T11:06:35.462Z,99017.81
2022-12-29T11:11:38.279Z,99029.72
2022-12-29T11:16:40.576Z,99026.38
2022-12-29T11:21:43.606Z,99034.91
2022-12-29T11:26:45.958Z,99029.41
2022-12-29T11:31:56.699Z,99029.13
2022-12-29T11:37:44.660Z,99035.75
2022-12-29T11:42:56.181Z,99045.34
2022-12-29T11:48:10.099Z,99051.19
2022-12-29T11:53:24.869Z,99048.78
2022-12-29T11:58:35.535Z,99039.84
2022-12-29T12:03:41.745Z,99037.38
2022-12-29T12:08:57.943Z,99039.53
2022-12-29T12:14:24.818Z,99037.59
2022-12-29T12:19:44.941Z,99050.38
2022-12-29T12:24:53.227Z,99053.53
2022-12-29T12:30:04.120Z,99054.00
2022-12-29T12:35:05.743Z,99046.03
2022-12-29T12:40:34.869Z,99049.97
2022-12-29T12:45:44.749Z,99053.63
2022-12-29T12:50:52.963Z,99053.94
2022-12-29T12:56:13.645Z,99048.81
2022-12-29T13:01:15.290Z,99041.63
2022-12-29T13:06:27.840Z,99043.13
2022-12-29T13:11:32.380Z,99053.38
2022-12-29T13:16:48.809Z,99045.81
2022-12-29T13:22:14.951Z,99045.16
2022-12-29T13:27:19.671Z,99062.72
2022-12-29T13:32:41.484Z,99062.75
2022-12-29T13:37:53.939Z,99067.78
2022-12-29T13:42:57.495Z,99070.75
2022-12-29T13:48:07.156Z,99081.44
2022-12-29T13:53:42.257Z,99078.59
2022-12-29T13:59:12.061Z,99098.69
2022-12-29T14:04:16.068Z,99083.38
2022-12-29T14:09:36.905Z,99089.19
2022-12-29T14:14:43.011Z,99087.13
2022-12-29T14:19:46.502Z,99097.03
2022-12-29T14:24:48.161Z,99093.22
2022-12-29T14:29:51.589Z,99093.66
2022-12-29T14:34:58.105Z,99113.47
2022-12-29T14:40:15.619Z,99105.31
2022-12-29T14:45:17.731Z,99115.97
2022-12-29T14:50:22.203Z,99118.78
2022-12-29T14:55:50.925Z,99117.50
2022-12-29T15:00:52.775Z,99122.66
2022-12-29T15:05:56.541Z,99131.41
2022-12-29T15:11:12.308Z,99131.22
2022-12-29T15:16:32.468Z,99142.00
2022-12-29T15:21:37.201Z,99137.72
2022-12-29T15:26:45.061Z,99139.16
2022-12-29T15:31:49.873Z,99149.50
2022-12-29T15:36:52.797Z,99146.06
2022-12-29T15:42:05.317Z,99139.38
2022-12-29T15:47:15.753Z,99149.56
2022-12-29T15:52:24.750Z,99151.19
2022-12-29T15:57:33.679Z,99163.72
2022-12-29T16:02:35.684Z,99155.03
2022-12-29T16:07:41.919Z,99159.75
2022-12-29T16:12:44.092Z,99165.53
2022-12-29T16:17:56.614Z,99175.50
2022-12-29T16:23:00.630Z,99174.72
2022-12-29T16:28:04.537Z,99187.47
2022-12-29T16:33:06.866Z,99199.41
2022-12-29T16:38:14.623Z,99202.28
2022-12-29T16:43:22.343Z,99216.56
2022-12-29T16:48:29.287Z,99214.22
2022-12-29T16:53:39.885Z,99224.00
2022-12-29T16:58:46.447Z,99230.44
2022-12-29T17:03:58.165Z,99222.06
2022-12-29T17:09:00.006Z,99231.72
2022-12-29T17:14:01.587Z,99238.06
2022-12-29T17:19:03.173Z,99244.84
2022-12-29T17:24:06.607Z,99255.38
2022-12-29T17:29:15.833Z,99248.44
2022-12-29T17:34:17.989Z,99264.34
2022-12-29T17:39:19.718Z,99259.97
2022-12-29T17:44:23.825Z,99271.75
2022-12-29T17:49:25.715Z,99255.59
2022-12-29T17:54:27.417Z,99258.47
2022-12-29T17:59:29.193Z,99255.47
2022-12-29T18:04:30.844Z,99259.28
2022-12-29T18:09:32.456Z,99258.66
2022-12-29T18:14:34.084Z,99276.28
2022-12-29T18:19:36.268Z,99285.88
2022-12-29T18:24:38.054Z,99297.06
2022-12-29T18:29:40.601Z,99299.66
2022-12-29T18:34:43.124Z,99303.69
2022-12-29T18:39:44.772Z,99312.19
2022-12-29T18:44:46.384Z,99310.34
2022-12-29T18:49:48.231Z,99313.09
2022-12-29T18:54:49.826Z,99317.88
2022-12-29T18:59:51.442Z,99323.59
2022-12-29T19:04:54.202Z,99320.56
2022-12-29T19:09:59.883Z,99328.13
2022-12-29T19:15:02.693Z,99328.94
2022-12-29T19:20:04.915Z,99335.97
2022-12-29T19:25:06.795Z,99340.09
2022-12-29T19:30:12.273Z,99353.09
2022-12-29T19:35:14.071Z,99354.88
2022-12-29T19:40:19.475Z,99356.63
2022-12-29T19:45:21.121Z,99356.09
2022-12-29T19:50:22.889Z,99359.66
2022-12-29T19:55:24.503Z,99363.84
2022-12-29T20:00:26.186Z,99361.16
2022-12-29T20:05:27.802Z,99357.69
2022-12-29T20:10:29.449Z,99371.16
2022-12-29T20:15:31.039Z,99369.38
2022-12-29T20:20:34.473Z,99367.41
2022-12-29T20:25:45.199Z,99373.13
2022-12-29T20:31:04.839Z,99371.28
2022-12-29T20:36:10.064Z,99378.69
2022-12-29T20:41:13.384Z,99381.75
2022-12-29T20:46:20.406Z,99387.50
2022-12-29T20:51:22.812Z,99393.53
2022-12-29T20:56:28.099Z,99400.91
2022-12-29T21:01:30.042Z,99403.72
2022-12-29T21:06:32.594Z,99404.25
2022-12-29T21:11:34.454Z,99421.66
2022-12-29T21:16:36.130Z,99429.19
2022-12-29T21:21:38.399Z,99432.88
2022-12-29T21:26:40.487Z,99442.47
2022-12-29T21:31:42.106Z,99453.53
2022-12-29T21:36:44.209Z,99452.28
2022-12-29T21:41:47.436Z,99442.50
2022-12-29T21:46:49.087Z,99450.75
2022-12-29T21:51:51.020Z,99451.25
2022-12-29T21:56:52.681Z,99456.66
2022-12-29T22:02:12.906Z,99460.00
2022-12-29T22:07:33.443Z,99463.38
2022-12-29T22:12:54.229Z,99469.75
2022-12-29T22:17:56.733Z,99476.19
2022-12-29T22:22:58.388Z,99487.13
2022-12-29T22:28:00.089Z,99489.91
2022-12-29T22:33:02.169Z,99493.72
2022-12-29T22:38:04.117Z,99511.69
2022-12-29T22:43:12.717Z,99512.66
2022-12-29T22:48:14.755Z,99512.66
2022-12-29T22:53:16.988Z,99512.19
2022-12-29T22:58:19.084Z,99523.97
2022-12-29T23:03:21.135Z,99521.78
2022-12-29T23:08:22.886Z,99528.22
2022-12-29T23:13:24.685Z,99527.75
2022-12-29T23:18:27.337Z,99522.16
2022-12-29T23:23:49.536Z,99519.09
2022-12-29T23:28:59.515Z,99520.56
2022-12-29T23:34:03.427Z,99526.13
2022-12-29T23:39:05.756Z,99515.94
2022-12-29T23:44:07.433Z,99525.47
2022-12-29T23:49:09.649Z,99524.78
2022-12-29T23:54:11.377Z,99534.63
2022-12-29T23:59:13.010Z,99518.06
